createdAt,value
2023-10-09T00:02:15.740Z,4.38
2023-10-09T00:04:46.651Z,4.55
2023-10-09T00:09:48.778Z,4.18
2023-10-09T00:12:25.259Z,4.28
2023-10-09T00:14:57.482Z,5.60
2023-10-09T00:17:32.619Z,5.82
2023-10-09T00:20:10.154Z,6.90
2023-10-09T00:22:44.910Z,5.45
2023-10-09T00:25:13.227Z,5.97
2023-10-09T00:27:47.377Z,5.50
2023-10-09T00:30:19.800Z,5.70
2023-10-09T00:33:03.055Z,5.13
2023-10-09T00:35:45.963Z,4.95
2023-10-09T00:38:25.613Z,4.53
2023-10-09T00:41:09.441Z,4.55
2023-10-09T00:43:38.821Z,5.68
2023-10-09T00:46:18.018Z,5.97
2023-10-09T00:48:49.041Z,6.72
2023-10-09T00:51:21.538Z,8.10
2023-10-09T00:53:59.604Z,6.25
2023-10-09T00:56:27.751Z,5.72
2023-10-09T00:59:16.098Z,5.15
2023-10-09T01:02:05.452Z,4.63
2023-10-09T01:04:38.299Z,4.20
2023-10-09T01:07:18.804Z,4.40
2023-10-09T01:09:46.713Z,4.38
2023-10-09T01:12:20.402Z,4.30
2023-10-09T01:14:56.901Z,4.93
2023-10-09T01:17:37.545Z,4.75
2023-10-09T01:20:06.863Z,6.10
2023-10-09T01:22:34.798Z,5.57
2023-10-09T01:25:07.262Z,5.45
2023-10-09T01:27:35.483Z,5.53
2023-10-09T01:30:03.715Z,4.70
2023-10-09T01:32:32.601Z,4.82
2023-10-09T01:35:00.812Z,5.10
2023-10-09T01:37:31.588Z,4.03
2023-10-09T01:40:02.248Z,4.30
2023-10-09T01:42:36.648Z,4.03
2023-10-09T01:45:14.553Z,4.53
2023-10-09T01:47:42.437Z,4.63
2023-10-09T01:50:21.137Z,3.85
2023-10-09T01:52:52.420Z,4.32
2023-10-09T01:55:34.463Z,4.60
2023-10-09T01:58:07.344Z,5.28
2023-10-09T02:00:43.472Z,4.50
2023-10-09T02:03:14.459Z,4.35
2023-10-09T02:05:44.035Z,4.25
2023-10-09T02:08:12.786Z,5.15
2023-10-09T02:10:41.233Z,4.97
2023-10-09T02:13:11.108Z,4.97
2023-10-09T02:15:44.699Z,5.43
2023-10-09T02:18:18.708Z,5.10
2023-10-09T02:20:47.068Z,5.35
2023-10-09T02:23:18.433Z,5.63
2023-10-09T02:25:48.222Z,5.70
2023-10-09T02:28:18.941Z,5.88
2023-10-09T02:30:48.733Z,5.20
2023-10-09T02:33:22.202Z,4.47
2023-10-09T02:35:52.662Z,5.10
2023-10-09T02:38:24.260Z,4.95
2023-10-09T02:41:21.853Z,5.28
2023-10-09T02:43:52.156Z,4.78
2023-10-09T02:46:20.629Z,4.60
2023-10-09T02:48:52.196Z,5.88
2023-10-09T02:51:29.881Z,5.03
2023-10-09T02:53:59.176Z,5.80
2023-10-09T02:56:48.634Z,5.80
2023-10-09T02:59:16.869Z,5.90
2023-10-09T03:01:44.649Z,5.47
2023-10-09T03:04:12.655Z,6.03
2023-10-09T03:06:44.673Z,6.20
2023-10-09T03:09:18.905Z,5.28
2023-10-09T03:11:54.819Z,5.65
2023-10-09T03:14:26.266Z,6.22
2023-10-09T03:16:54.653Z,5.90
2023-10-09T03:19:22.614Z,5.85
2023-10-09T03:21:50.481Z,7.03
2023-10-09T03:24:19.555Z,6.40
2023-10-09T03:26:47.508Z,6.38
2023-10-09T03:29:15.402Z,6.15
2023-10-09T03:31:44.482Z,6.50
2023-10-09T03:34:13.406Z,6.80
2023-10-09T03:36:41.472Z,6.25
2023-10-09T03:39:25.673Z,5.75
2023-10-09T03:41:55.604Z,6.70
2023-10-09T03:44:23.475Z,6.95
2023-10-09T03:46:52.768Z,6.25
2023-10-09T03:49:25.042Z,6.07
2023-10-09T03:51:53.021Z,5.95
2023-10-09T03:54:25.821Z,6.63
2023-10-09T03:56:56.158Z,5.75
2023-10-09T03:59:24.078Z,6.10
2023-10-09T04:01:54.320Z,5.78
2023-10-09T04:04:24.753Z,6.72
2023-10-09T04:06:55.590Z,5.63
2023-10-09T04:09:23.549Z,6.00
2023-10-09T04:12:10.045Z,6.28
2023-10-09T04:14:56.461Z,5.40
2023-10-09T04:17:24.867Z,5.70
2023-10-09T04:20:11.380Z,5.22
2023-10-09T04:22:52.479Z,5.63
2023-10-09T04:25:43.407Z,5.70
2023-10-09T04:28:21.412Z,5.75
2023-10-09T04:30:55.219Z,6.13
2023-10-09T04:33:36.012Z,5.28
2023-10-09T04:36:33.786Z,5.65
2023-10-09T04:39:05.003Z,6.28
2023-10-09T04:41:53.540Z,5.95
2023-10-09T04:44:26.026Z,6.10
2023-10-09T04:47:27.216Z,6.25
2023-10-09T04:49:58.252Z,7.05
2023-10-09T04:52:32.134Z,6.90
2023-10-09T04:55:21.150Z,6.55
2023-10-09T04:58:25.068Z,6.60
2023-10-09T05:00:58.891Z,7.15
2023-10-09T05:03:31.788Z,6.18
2023-10-09T05:06:00.151Z,6.97
2023-10-09T05:08:28.752Z,6.80
2023-10-09T05:11:01.258Z,6.35
2023-10-09T05:13:58.052Z,6.30
2023-10-09T05:16:34.634Z,6.38
2023-10-09T05:19:22.520Z,7.13
2023-10-09T05:21:50.613Z,5.35
2023-10-09T05:24:20.340Z,5.85
2023-10-09T05:26:49.380Z,6.20
2023-10-09T05:29:35.168Z,5.45
2023-10-09T05:32:04.055Z,5.68
2023-10-09T05:34:35.455Z,5.70
2023-10-09T05:37:26.737Z,5.68
2023-10-09T05:40:04.109Z,5.88
2023-10-09T05:42:45.201Z,5.95
2023-10-09T05:45:20.417Z,6.60
2023-10-09T05:47:57.547Z,6.20
2023-10-09T05:50:25.570Z,6.03
2023-10-09T05:52:54.393Z,6.10
2023-10-09T05:55:25.954Z,6.03
2023-10-09T05:58:16.391Z,5.40
2023-10-09T06:01:02.821Z,5.47
2023-10-09T06:03:49.384Z,5.80
2023-10-09T06:06:44.113Z,5.60
2023-10-09T06:09:15.961Z,6.53
2023-10-09T06:12:05.286Z,6.97
2023-10-09T06:14:36.095Z,7.18
2023-10-09T06:17:12.873Z,7.00
2023-10-09T06:19:50.066Z,5.95
2023-10-09T06:22:42.632Z,6.97
2023-10-09T06:25:10.731Z,5.75
2023-10-09T06:27:38.521Z,5.85
2023-10-09T06:30:26.171Z,4.75
2023-10-09T06:33:21.126Z,5.93
2023-10-09T06:35:55.384Z,6.13
2023-10-09T06:38:24.327Z,5.53
2023-10-09T06:41:07.828Z,6.10
2023-10-09T06:43:38.000Z,5.93
2023-10-09T06:46:41.420Z,6.28
2023-10-09T06:49:27.775Z,5.40
2023-10-09T06:52:10.166Z,4.82
2023-10-09T06:54:39.052Z,4.22
2023-10-09T06:57:19.642Z,4.25
2023-10-09T07:00:07.551Z,3.55
2023-10-09T07:02:47.766Z,4.50
2023-10-09T07:05:18.944Z,4.15
2023-10-09T07:07:56.556Z,5.07
2023-10-09T07:10:30.899Z,3.15
2023-10-09T07:12:58.763Z,3.70
2023-10-09T07:15:46.888Z,3.60
2023-10-09T07:18:21.270Z,4.13
2023-10-09T07:21:00.531Z,3.88
2023-10-09T07:23:34.308Z,4.50
2023-10-09T07:26:18.845Z,3.10
2023-10-09T07:28:49.986Z,3.80
2023-10-09T07:31:28.972Z,4.13
2023-10-09T07:33:59.584Z,3.40
2023-10-09T07:36:41.496Z,3.33
2023-10-09T07:39:16.977Z,3.80
2023-10-09T07:41:57.999Z,2.95
2023-10-09T07:44:38.735Z,3.35
2023-10-09T07:47:33.244Z,4.55
2023-10-09T07:50:03.638Z,3.63
2023-10-09T07:52:31.756Z,3.47
2023-10-09T07:55:07.881Z,3.40
2023-10-09T07:57:43.620Z,3.15
2023-10-09T08:00:31.602Z,3.80
2023-10-09T08:03:02.136Z,3.80
2023-10-09T08:05:45.696Z,3.55
2023-10-09T08:08:39.892Z,2.97
2023-10-09T08:11:29.539Z,3.28
2023-10-09T08:13:57.560Z,3.42
2023-10-09T08:16:37.620Z,3.80
2023-10-09T08:19:24.725Z,4.27
2023-10-09T08:22:11.132Z,4.53
2023-10-09T08:24:57.270Z,3.67
2023-10-09T08:27:32.501Z,3.00
2023-10-09T08:30:19.594Z,2.80
2023-10-09T08:35:50.360Z,2.70
2023-10-09T08:38:25.265Z,2.70
2023-10-09T08:41:00.394Z,2.70
2023-10-09T08:43:32.493Z,3.10
2023-10-09T08:46:02.908Z,2.55
2023-10-09T08:48:31.105Z,2.63
2023-10-09T08:50:59.386Z,1.98
2023-10-09T08:53:32.298Z,1.90
2023-10-09T08:56:00.198Z,3.70
2023-10-09T08:58:34.052Z,2.90
2023-10-09T09:01:02.202Z,2.65
2023-10-09T09:03:39.843Z,2.92
2023-10-09T09:06:07.794Z,2.67
2023-10-09T09:08:37.576Z,3.85
2023-10-09T09:11:14.285Z,2.63
2023-10-09T09:13:42.729Z,1.83
2023-10-09T09:16:18.074Z,2.30
2023-10-09T09:19:22.155Z,2.08
2023-10-09T09:21:57.359Z,2.20
2023-10-09T09:24:28.249Z,2.30
2023-10-09T09:27:02.007Z,2.42
2023-10-09T09:29:37.919Z,2.20
2023-10-09T09:32:22.137Z,2.10
2023-10-09T09:34:58.459Z,2.75
2023-10-09T09:37:30.020Z,3.15
2023-10-09T09:40:02.354Z,3.15
2023-10-09T09:42:34.142Z,2.67
2023-10-09T09:47:32.158Z,2.00
2023-10-09T09:50:12.699Z,1.80
2023-10-09T09:52:41.126Z,1.50
2023-10-09T09:55:15.830Z,1.77
2023-10-09T09:57:47.131Z,1.42
2023-10-09T10:00:30.768Z,2.00
2023-10-09T10:03:07.368Z,1.88
2023-10-09T10:05:35.830Z,2.28
2023-10-09T10:08:06.810Z,2.00
2023-10-09T10:10:57.067Z,2.08
2023-10-09T10:13:43.276Z,2.13
2023-10-09T10:16:21.390Z,2.20
2023-10-09T10:19:08.870Z,2.78
2023-10-09T10:21:43.617Z,2.03
2023-10-09T10:24:30.222Z,3.97
2023-10-09T10:27:28.807Z,5.70
2023-10-09T10:30:15.428Z,4.55
2023-10-09T10:32:55.862Z,1.45
2023-10-09T10:35:33.854Z,1.80
2023-10-09T10:38:12.581Z,1.70
2023-10-09T10:40:42.316Z,1.48
2023-10-09T10:43:33.620Z,1.23
2023-10-09T10:46:25.795Z,1.65
2023-10-09T10:49:01.641Z,1.50
2023-10-09T10:51:39.308Z,1.83
2023-10-09T10:54:29.489Z,1.80
2023-10-09T10:56:59.507Z,1.85
2023-10-09T10:59:38.096Z,1.95
2023-10-09T11:02:12.093Z,1.70
2023-10-09T11:04:43.043Z,2.10
2023-10-09T11:07:13.777Z,2.17
2023-10-09T11:10:01.414Z,1.63
2023-10-09T11:12:39.664Z,2.20
2023-10-09T11:15:10.225Z,1.60
2023-10-09T11:17:40.106Z,2.03
2023-10-09T11:20:25.228Z,1.63
2023-10-09T11:23:12.379Z,2.10
2023-10-09T11:25:54.483Z,2.65
2023-10-09T11:28:41.734Z,3.88
2023-10-09T11:31:13.399Z,3.10
2023-10-09T11:33:50.253Z,3.85
2023-10-09T11:36:22.994Z,3.38
2023-10-09T11:38:56.030Z,3.13
2023-10-09T11:41:26.820Z,3.70
2023-10-09T11:43:55.974Z,4.15
2023-10-09T11:46:43.144Z,3.17
2023-10-09T11:49:23.524Z,3.55
2023-10-09T11:52:12.590Z,4.55
2023-10-09T11:54:40.524Z,5.32
2023-10-09T11:57:08.346Z,4.10
2023-10-09T11:59:40.319Z,3.60
2023-10-09T12:02:14.431Z,4.20
2023-10-09T12:04:47.048Z,4.70
2023-10-09T12:07:15.654Z,3.40
2023-10-09T12:09:44.011Z,3.67
2023-10-09T12:12:12.082Z,3.45
2023-10-09T12:14:41.271Z,3.00
2023-10-09T12:17:10.385Z,3.78
2023-10-09T12:19:40.207Z,3.58
2023-10-09T12:22:17.527Z,2.30
2023-10-09T12:24:46.966Z,3.13
2023-10-09T12:27:14.856Z,3.00
2023-10-09T12:29:48.973Z,2.78
2023-10-09T12:32:22.162Z,2.85
2023-10-09T12:34:52.322Z,3.33
2023-10-09T12:37:22.242Z,2.72
2023-10-09T12:39:54.020Z,2.50
2023-10-09T12:42:22.297Z,3.05
2023-10-09T12:44:50.579Z,3.35
2023-10-09T12:47:20.764Z,3.08
2023-10-09T12:49:49.872Z,2.45
2023-10-09T12:52:18.236Z,3.22
2023-10-09T12:54:47.590Z,3.00
2023-10-09T12:57:15.449Z,3.28
2023-10-09T12:59:47.094Z,2.72
2023-10-09T13:02:29.961Z,3.13
2023-10-09T13:04:59.126Z,2.50
2023-10-09T13:07:27.146Z,4.05
2023-10-09T13:10:10.902Z,4.75
2023-10-09T13:12:45.271Z,6.07
2023-10-09T13:15:13.613Z,7.70
2023-10-09T13:17:42.852Z,6.03
2023-10-09T13:20:14.456Z,5.57
2023-10-09T13:22:43.005Z,7.35
2023-10-09T13:25:31.249Z,7.20
2023-10-09T13:28:05.322Z,6.05
2023-10-09T13:30:41.495Z,6.55
2023-10-09T13:33:11.372Z,6.90
2023-10-09T13:35:39.442Z,6.30
2023-10-09T13:38:11.380Z,5.72
2023-10-09T13:40:39.894Z,6.20
2023-10-09T13:43:08.388Z,5.50
2023-10-09T13:45:40.452Z,6.13
2023-10-09T13:48:12.917Z,6.22
2023-10-09T13:50:44.171Z,5.50
2023-10-09T13:53:14.029Z,4.68
2023-10-09T13:55:45.147Z,4.05
2023-10-09T13:58:22.142Z,4.13
2023-10-09T14:00:51.806Z,4.47
2023-10-09T14:03:21.458Z,4.97
2023-10-09T14:06:02.110Z,4.93
2023-10-09T14:08:30.463Z,5.00
2023-10-09T14:10:58.414Z,6.40
2023-10-09T14:13:30.278Z,6.13
2023-10-09T14:16:01.310Z,6.38
2023-10-09T14:21:05.965Z,7.65
2023-10-09T14:23:36.230Z,6.93
2023-10-09T14:26:07.667Z,6.60
2023-10-09T14:28:35.956Z,7.03
2023-10-09T14:31:06.093Z,7.32
2023-10-09T14:33:38.065Z,6.22
2023-10-09T14:36:07.233Z,6.95
2023-10-09T14:38:39.843Z,5.35
2023-10-09T14:41:13.094Z,5.80
2023-10-09T14:43:42.740Z,6.35
2023-10-09T14:46:16.125Z,5.53
2023-10-09T14:48:47.649Z,5.75
2023-10-09T14:51:15.738Z,5.93
2023-10-09T14:53:45.330Z,5.03
2023-10-09T14:56:17.303Z,5.15
2023-10-09T14:58:48.605Z,6.68
2023-10-09T15:01:23.331Z,5.45
2023-10-09T15:03:58.386Z,5.10
2023-10-09T15:06:28.524Z,4.22
2023-10-09T15:08:56.997Z,5.72
2023-10-09T15:11:27.236Z,6.28
2023-10-09T15:13:55.241Z,6.50
2023-10-09T15:16:27.619Z,5.40
2023-10-09T15:18:58.333Z,5.15
2023-10-09T15:21:33.586Z,4.40
2023-10-09T15:24:01.611Z,4.88
2023-10-09T15:26:33.855Z,5.50
2023-10-09T15:29:04.897Z,4.50
2023-10-09T15:34:01.995Z,5.35
2023-10-09T15:36:33.957Z,5.07
2023-10-09T15:39:01.844Z,5.82
2023-10-09T15:41:35.998Z,5.95
2023-10-09T15:44:04.003Z,5.63
2023-10-09T15:46:35.675Z,5.70
2023-10-09T15:49:03.979Z,5.55
2023-10-09T15:51:31.859Z,6.55
2023-10-09T15:53:59.916Z,7.07
2023-10-09T15:56:28.208Z,8.13
2023-10-09T15:58:57.509Z,6.68
2023-10-09T16:01:25.440Z,7.32
2023-10-09T16:03:54.845Z,6.13
2023-10-09T16:06:26.839Z,7.28
2023-10-09T16:08:55.879Z,8.25
2023-10-09T16:11:27.437Z,8.00
2023-10-09T16:13:55.698Z,7.45
2023-10-09T16:16:28.799Z,7.45
2023-10-09T16:19:02.117Z,7.72
2023-10-09T16:21:33.093Z,7.45
2023-10-09T16:24:06.679Z,8.88
2023-10-09T16:29:09.255Z,8.63
2023-10-09T16:31:41.194Z,9.18
2023-10-09T16:34:10.249Z,11.50
2023-10-09T16:36:38.525Z,11.20
2023-10-09T16:39:06.441Z,12.63
2023-10-09T16:41:41.295Z,12.88
2023-10-09T16:44:11.963Z,13.68
2023-10-09T16:46:41.395Z,13.45
2023-10-09T16:49:09.849Z,13.50
2023-10-09T16:51:38.207Z,12.07
2023-10-09T16:54:06.391Z,11.25
2023-10-09T16:56:35.067Z,11.57
2023-10-09T16:59:06.804Z,11.50
2023-10-09T17:01:34.834Z,13.85
2023-10-09T17:04:04.903Z,12.18
2023-10-09T17:06:36.010Z,12.33
2023-10-09T17:09:07.602Z,11.80
2023-10-09T17:11:37.908Z,13.38
2023-10-09T17:14:08.829Z,12.68
2023-10-09T17:16:42.260Z,14.43
2023-10-09T17:19:10.532Z,13.68
2023-10-09T17:21:39.717Z,12.55
2023-10-09T17:24:12.386Z,12.93
2023-10-09T17:26:42.559Z,13.15
2023-10-09T17:29:11.685Z,12.13
2023-10-09T17:31:40.958Z,13.10
2023-10-09T17:34:09.791Z,13.55
2023-10-09T17:36:37.729Z,15.13
2023-10-09T17:39:08.702Z,14.18
2023-10-09T17:41:37.159Z,13.85
2023-10-09T17:44:05.644Z,13.88
2023-10-09T17:46:33.572Z,13.57
2023-10-09T17:49:01.632Z,15.52
2023-10-09T17:51:29.584Z,15.63
2023-10-09T17:53:59.014Z,13.48
2023-10-09T17:56:27.487Z,13.23
2023-10-09T17:58:55.375Z,15.18
2023-10-09T18:01:26.310Z,15.23
2023-10-09T18:03:54.595Z,14.13
2023-10-09T18:06:22.519Z,14.77
2023-10-09T18:08:50.417Z,13.85
2023-10-09T18:11:18.834Z,14.82
2023-10-09T18:13:47.282Z,15.85
2023-10-09T18:16:18.548Z,14.75
2023-10-09T18:18:48.481Z,15.15
2023-10-09T18:21:21.373Z,15.85
2023-10-09T18:23:49.922Z,16.35
2023-10-09T18:26:19.938Z,14.63
2023-10-09T18:28:49.601Z,15.43
2023-10-09T18:31:18.139Z,15.40
2023-10-09T18:33:46.687Z,15.25
2023-10-09T18:36:14.582Z,14.27
2023-10-09T18:38:46.080Z,14.38
2023-10-09T18:41:14.377Z,15.10
2023-10-09T18:43:43.404Z,14.07
2023-10-09T18:46:15.677Z,15.30
2023-10-09T18:48:47.000Z,14.15
2023-10-09T18:51:15.761Z,15.13
2023-10-09T18:53:44.690Z,14.88
2023-10-09T18:56:16.268Z,15.05
2023-10-09T18:58:44.567Z,15.43
2023-10-09T19:01:15.886Z,15.23
2023-10-09T19:03:48.541Z,16.00
2023-10-09T19:06:19.319Z,15.30
2023-10-09T19:08:49.797Z,16.10
2023-10-09T19:11:22.367Z,15.93
2023-10-09T19:13:50.499Z,16.27
2023-10-09T19:16:18.894Z,15.32
2023-10-09T19:18:47.134Z,16.02
2023-10-09T19:21:16.080Z,17.30
2023-10-09T19:23:47.996Z,17.15
2023-10-09T19:26:16.232Z,19.70
2023-10-09T19:28:45.227Z,23.80
2023-10-09T19:31:13.867Z,17.50
2023-10-09T19:33:44.935Z,21.27
2023-10-09T19:38:41.405Z,24.60
2023-10-09T19:41:12.674Z,18.48
2023-10-09T19:43:41.914Z,19.45
2023-10-09T19:46:10.062Z,20.35
2023-10-09T19:48:39.875Z,19.80
2023-10-09T19:51:08.327Z,18.98
2023-10-09T19:53:37.928Z,21.45
2023-10-09T19:56:07.377Z,18.50
2023-10-09T19:58:35.293Z,20.67
2023-10-09T20:01:06.241Z,22.92
2023-10-09T20:03:34.459Z,18.80
2023-10-09T20:06:04.936Z,18.83
2023-10-09T20:08:34.735Z,16.48
2023-10-09T20:11:09.871Z,16.20
2023-10-09T20:13:38.302Z,17.30
2023-10-09T20:16:10.194Z,15.90
2023-10-09T20:18:44.011Z,16.98
2023-10-09T20:21:12.764Z,17.77
2023-10-09T20:23:41.251Z,17.42
2023-10-09T20:26:12.964Z,17.23
2023-10-09T20:28:41.007Z,18.35
2023-10-09T20:31:09.615Z,15.65
2023-10-09T20:33:38.699Z,15.98
2023-10-09T20:36:11.749Z,17.08
2023-10-09T20:38:43.344Z,16.65
2023-10-09T20:41:11.823Z,16.10
2023-10-09T20:43:43.200Z,16.13
2023-10-09T20:46:16.872Z,16.80
2023-10-09T20:48:48.132Z,17.33
2023-10-09T20:51:17.266Z,19.45
2023-10-09T20:53:45.328Z,18.02
2023-10-09T20:56:13.411Z,18.27
2023-10-09T20:58:42.760Z,16.25
2023-10-09T21:01:17.592Z,15.65
2023-10-09T21:03:47.298Z,13.75
2023-10-09T21:06:15.650Z,14.40
2023-10-09T21:08:44.834Z,12.48
2023-10-09T21:11:13.995Z,15.90
2023-10-09T21:13:42.025Z,14.70
2023-10-09T21:16:13.795Z,13.80
2023-10-09T21:18:45.029Z,13.45
2023-10-09T21:21:13.832Z,13.63
2023-10-09T21:23:42.307Z,14.15
2023-10-09T21:26:20.751Z,13.10
2023-10-09T21:28:53.322Z,12.70
2023-10-09T21:31:23.165Z,12.25
2023-10-09T21:33:51.977Z,8.82
2023-10-09T21:36:21.085Z,9.60
2023-10-09T21:38:49.419Z,10.52
2023-10-09T21:41:18.653Z,12.23
2023-10-09T21:43:47.475Z,12.05
2023-10-09T21:46:16.510Z,11.85
2023-10-09T21:48:44.980Z,10.13
2023-10-09T21:51:17.704Z,11.27
2023-10-09T21:53:46.486Z,12.13
2023-10-09T21:56:15.748Z,12.95
2023-10-09T21:58:44.151Z,11.77
2023-10-09T22:01:13.900Z,10.52
2023-10-09T22:03:42.940Z,10.68
2023-10-09T22:06:12.138Z,8.95
2023-10-09T22:08:40.343Z,7.80
2023-10-09T22:11:11.051Z,6.93
2023-10-09T22:13:40.260Z,7.25
2023-10-09T22:16:08.198Z,6.85
2023-10-09T22:18:41.710Z,6.97
2023-10-09T22:21:12.769Z,6.10
2023-10-09T22:23:47.405Z,5.57
2023-10-09T22:26:21.597Z,7.75
2023-10-09T22:28:49.659Z,8.07
2023-10-09T22:31:18.058Z,5.80
2023-10-09T22:33:47.204Z,5.97
2023-10-09T22:36:38.097Z,5.38
2023-10-09T22:39:22.611Z,5.07
2023-10-09T22:41:51.532Z,5.38
2023-10-09T22:44:23.092Z,7.22
2023-10-09T22:46:53.173Z,7.30
2023-10-09T22:49:26.752Z,6.57
2023-10-09T22:51:55.648Z,6.10
2023-10-09T22:54:36.036Z,6.55
2023-10-09T22:57:07.244Z,8.10
2023-10-09T22:59:45.810Z,8.57
2023-10-09T23:02:24.165Z,8.55
2023-10-09T23:05:05.613Z,6.95
2023-10-09T23:07:33.890Z,5.97
2023-10-09T23:10:21.950Z,6.68
2023-10-09T23:12:50.185Z,7.07
2023-10-09T23:15:37.126Z,7.00
2023-10-09T23:18:30.961Z,7.43
2023-10-09T23:21:17.302Z,6.05
2023-10-09T23:23:46.377Z,6.60
2023-10-09T23:26:23.128Z,7.45
2023-10-09T23:28:54.985Z,6.28
2023-10-09T23:31:48.583Z,6.60
2023-10-09T23:34:21.282Z,6.18
2023-10-09T23:36:49.429Z,5.03
2023-10-09T23:39:37.249Z,5.18
2023-10-09T23:42:16.525Z,5.22
2023-10-09T23:44:44.476Z,5.50
2023-10-09T23:47:18.796Z,4.47
2023-10-09T23:49:49.423Z,6.80
2023-10-09T23:52:17.338Z,7.72
2023-10-09T23:54:48.908Z,6.47
2023-10-09T23:57:20.743Z,7.80
